sensor_id;sensor_type;location;lat;lon;timestamp;pressure;altitude;pressure_sealevel;temperature;humidity
37778;BME280;23615;51.506;7.678;2022-12-11T00:01:55;99569.88;;;1.20;94.85
37778;BME280;23615;51.506;7.678;2022-12-11T00:04:21;99571.69;;;1.19;94.66
37778;BME280;23615;51.506;7.678;2022-12-11T00:06:47;99561.19;;;1.19;94.33
37778;BME280;23615;51.506;7.678;2022-12-11T00:09:19;99563.06;;;1.10;94.63
37778;BME280;23615;51.506;7.678;2022-12-11T00:11:45;99564.84;;;0.87;95.09
37778;BME280;23615;51.506;7.678;2022-12-11T00:14:11;99568.72;;;0.99;95.70
37778;BME280;23615;51.506;7.678;2022-12-11T00:16:37;99563.75;;;1.04;95.44
37778;BME280;23615;51.506;7.678;2022-12-11T00:19:02;99560.78;;;1.07;95.08
37778;BME280;23615;51.506;7.678;2022-12-11T00:21:28;99547.47;;;0.86;95.12
37778;BME280;23615;51.506;7.678;2022-12-11T00:23:53;99558.22;;;0.99;95.42
37778;BME280;23615;51.506;7.678;2022-12-11T00:26:18;99559.72;;;0.94;95.95
37778;BME280;23615;51.506;7.678;2022-12-11T00:28:44;99557.22;;;1.00;95.57
37778;BME280;23615;51.506;7.678;2022-12-11T00:31:19;99557.81;;;1.10;95.42
37778;BME280;23615;51.506;7.678;2022-12-11T00:33:45;99560.44;;;1.10;94.74
37778;BME280;23615;51.506;7.678;2022-12-11T00:36:14;99552.97;;;1.22;94.26
37778;BME280;23615;51.506;7.678;2022-12-11T00:38:40;99560.84;;;1.22;94.27
37778;BME280;23615;51.506;7.678;2022-12-11T00:41:06;99564.53;;;1.13;94.33
37778;BME280;23615;51.506;7.678;2022-12-11T00:43:32;99566.22;;;1.06;94.78
37778;BME280;23615;51.506;7.678;2022-12-11T00:45:57;99566.09;;;0.99;95.23
37778;BME280;23615;51.506;7.678;2022-12-11T00:48:22;99561.88;;;0.90;95.41
37778;BME280;23615;51.506;7.678;2022-12-11T00:50:48;99561.41;;;0.87;95.81
37778;BME280;23615;51.506;7.678;2022-12-11T00:53:13;99565.00;;;0.86;96.28
37778;BME280;23615;51.506;7.678;2022-12-11T00:55:40;99572.13;;;0.77;96.72
37778;BME280;23615;51.506;7.678;2022-12-11T00:58:06;99569.31;;;0.79;96.56
37778;BME280;23615;51.506;7.678;2022-12-11T01:00:32;99565.34;;;0.83;96.84
37778;BME280;23615;51.506;7.678;2022-12-11T01:02:57;99572.97;;;0.69;97.16
37778;BME280;23615;51.506;7.678;2022-12-11T01:05:23;99574.50;;;0.56;97.94
37778;BME280;23615;51.506;7.678;2022-12-11T01:07:48;99570.28;;;0.47;98.31
37778;BME280;23615;51.506;7.678;2022-12-11T01:10:14;99565.84;;;0.47;98.96
37778;BME280;23615;51.506;7.678;2022-12-11T01:12:51;99562.09;;;0.42;99.19
37778;BME280;23615;51.506;7.678;2022-12-11T01:15:18;99569.13;;;0.49;99.15
37778;BME280;23615;51.506;7.678;2022-12-11T01:17:44;99570.75;;;0.50;98.86
37778;BME280;23615;51.506;7.678;2022-12-11T01:20:10;99580.25;;;0.59;98.42
37778;BME280;23615;51.506;7.678;2022-12-11T01:22:35;99581.06;;;0.60;98.05
37778;BME280;23615;51.506;7.678;2022-12-11T01:25:01;99578.44;;;0.60;97.84
37778;BME280;23615;51.506;7.678;2022-12-11T01:27:26;99577.03;;;0.41;98.68
37778;BME280;23615;51.506;7.678;2022-12-11T01:29:51;99581.13;;;0.44;99.74
37778;BME280;23615;51.506;7.678;2022-12-11T01:32:16;99580.47;;;0.42;98.70
37778;BME280;23615;51.506;7.678;2022-12-11T01:34:42;99579.97;;;0.38;99.13
37778;BME280;23615;51.506;7.678;2022-12-11T01:37:07;99573.78;;;0.31;99.75
37778;BME280;23615;51.506;7.678;2022-12-11T01:39:32;99583.41;;;0.38;100.00
37778;BME280;23615;51.506;7.678;2022-12-11T01:41:59;99582.06;;;0.51;99.52
37778;BME280;23615;51.506;7.678;2022-12-11T01:46:49;99579.91;;;0.07;99.81
37778;BME280;23615;51.506;7.678;2022-12-11T01:49:16;99580.75;;;-0.01;100.00
37778;BME280;23615;51.506;7.678;2022-12-11T01:51:48;99581.75;;;-0.10;100.00
37778;BME280;23615;51.506;7.678;2022-12-11T01:54:18;99574.03;;;-0.11;100.00
37778;BME280;23615;51.506;7.678;2022-12-11T01:56:45;99581.38;;;0.18;100.00
37778;BME280;23615;51.506;7.678;2022-12-11T01:59:15;99581.00;;;0.21;100.00
37778;BME280;23615;51.506;7.678;2022-12-11T02:01:44;99576.94;;;0.10;100.00
37778;BME280;23615;51.506;7.678;2022-12-11T02:04:12;99572.16;;;0.22;100.00
37778;BME280;23615;51.506;7.678;2022-12-11T02:06:46;99579.34;;;0.36;100.00
37778;BME280;23615;51.506;7.678;2022-12-11T02:09:19;99576.22;;;0.41;100.00
37778;BME280;23615;51.506;7.678;2022-12-11T02:11:55;99570.34;;;0.22;100.00
37778;BME280;23615;51.506;7.678;2022-12-11T02:14:42;99568.03;;;0.27;100.00
37778;BME280;23615;51.506;7.678;2022-12-11T02:17:20;99571.13;;;0.39;100.00
37778;BME280;23615;51.506;7.678;2022-12-11T02:25:31;99566.53;;;0.41;100.00
37778;BME280;23615;51.506;7.678;2022-12-11T02:28:16;99555.50;;;0.54;100.00
37778;BME280;23615;51.506;7.678;2022-12-11T02:30:47;99563.72;;;0.51;100.00
37778;BME280;23615;51.506;7.678;2022-12-11T02:33:15;99558.94;;;0.54;100.00
37778;BME280;23615;51.506;7.678;2022-12-11T02:35:42;99571.09;;;0.47;99.66
37778;BME280;23615;51.506;7.678;2022-12-11T02:38:12;99564.81;;;0.56;99.43
37778;BME280;23615;51.506;7.678;2022-12-11T02:40:40;99558.41;;;0.59;99.28
37778;BME280;23615;51.506;7.678;2022-12-11T02:43:09;99562.59;;;0.45;99.61
37778;BME280;23615;51.506;7.678;2022-12-11T02:45:36;99556.16;;;0.48;100.00
37778;BME280;23615;51.506;7.678;2022-12-11T02:48:04;99568.25;;;0.57;99.64
37778;BME280;23615;51.506;7.678;2022-12-11T02:50:32;99559.56;;;0.56;99.25
37778;BME280;23615;51.506;7.678;2022-12-11T02:53:00;99558.53;;;0.65;98.98
37778;BME280;23615;51.506;7.678;2022-12-11T02:55:28;99554.00;;;0.59;98.19
37778;BME280;23615;51.506;7.678;2022-12-11T02:58:08;99567.19;;;0.74;98.32
37778;BME280;23615;51.506;7.678;2022-12-11T03:00:37;99554.41;;;0.79;97.92
37778;BME280;23615;51.506;7.678;2022-12-11T03:03:02;99548.53;;;0.69;97.36
37778;BME280;23615;51.506;7.678;2022-12-11T03:05:28;99538.38;;;0.66;97.17
37778;BME280;23615;51.506;7.678;2022-12-11T03:07:54;99554.47;;;0.63;97.53
37778;BME280;23615;51.506;7.678;2022-12-11T03:10:19;99550.06;;;0.63;97.73
37778;BME280;23615;51.506;7.678;2022-12-11T03:12:47;99540.69;;;0.61;97.80
37778;BME280;23615;51.506;7.678;2022-12-11T03:15:16;99542.38;;;0.54;97.85
37778;BME280;23615;51.506;7.678;2022-12-11T03:18:00;99544.69;;;0.49;98.18
37778;BME280;23615;51.506;7.678;2022-12-11T03:24:00;99540.75;;;0.53;98.55
37778;BME280;23615;51.506;7.678;2022-12-11T03:26:28;99545.31;;;0.59;98.92
37778;BME280;23615;51.506;7.678;2022-12-11T03:28:58;99546.25;;;0.66;98.73
37778;BME280;23615;51.506;7.678;2022-12-11T03:31:29;99539.31;;;0.73;97.79
37778;BME280;23615;51.506;7.678;2022-12-11T03:33:59;99541.91;;;0.81;97.97
37778;BME280;23615;51.506;7.678;2022-12-11T03:36:31;99546.41;;;0.64;97.73
37778;BME280;23615;51.506;7.678;2022-12-11T03:39:00;99543.81;;;0.56;98.59
37778;BME280;23615;51.506;7.678;2022-12-11T03:41:27;99538.94;;;0.53;98.80
37778;BME280;23615;51.506;7.678;2022-12-11T03:43:56;99545.34;;;0.51;99.20
37778;BME280;23615;51.506;7.678;2022-12-11T03:46:26;99544.66;;;0.57;99.60
37778;BME280;23615;51.506;7.678;2022-12-11T03:48:55;99534.72;;;0.75;99.40
37778;BME280;23615;51.506;7.678;2022-12-11T03:51:23;99531.41;;;0.81;98.23
37778;BME280;23615;51.506;7.678;2022-12-11T03:53:50;99526.19;;;0.73;98.41
37778;BME280;23615;51.506;7.678;2022-12-11T03:56:16;99529.50;;;0.67;98.53
37778;BME280;23615;51.506;7.678;2022-12-11T03:58:43;99537.16;;;0.77;98.80
37778;BME280;23615;51.506;7.678;2022-12-11T04:01:10;99529.41;;;0.83;98.22
37778;BME280;23615;51.506;7.678;2022-12-11T04:03:36;99523.94;;;0.70;98.32
37778;BME280;23615;51.506;7.678;2022-12-11T04:06:03;99533.06;;;0.74;99.13
37778;BME280;23615;51.506;7.678;2022-12-11T04:08:29;99531.19;;;0.91;98.30
37778;BME280;23615;51.506;7.678;2022-12-11T04:10:54;99530.44;;;0.74;97.88
37778;BME280;23615;51.506;7.678;2022-12-11T04:13:39;99529.56;;;0.90;98.40
37778;BME280;23615;51.506;7.678;2022-12-11T04:16:05;99531.25;;;0.74;98.62
37778;BME280;23615;51.506;7.678;2022-12-11T04:18:31;99531.25;;;0.74;98.59
37778;BME280;23615;51.506;7.678;2022-12-11T04:21:15;99538.16;;;0.75;98.70
37778;BME280;23615;51.506;7.678;2022-12-11T04:23:58;99537.94;;;0.85;98.77
37778;BME280;23615;51.506;7.678;2022-12-11T04:26:40;99543.19;;;0.85;98.55
37778;BME280;23615;51.506;7.678;2022-12-11T04:29:05;99537.59;;;0.88;98.44
37778;BME280;23615;51.506;7.678;2022-12-11T04:31:30;99538.16;;;0.75;98.56
37778;BME280;23615;51.506;7.678;2022-12-11T04:33:56;99532.03;;;0.83;98.64
37778;BME280;23615;51.506;7.678;2022-12-11T04:36:22;99539.06;;;1.13;98.20
37778;BME280;23615;51.506;7.678;2022-12-11T04:38:47;99544.81;;;1.17;97.06
37778;BME280;23615;51.506;7.678;2022-12-11T04:41:14;99542.91;;;1.03;96.59
37778;BME280;23615;51.506;7.678;2022-12-11T04:43:40;99536.72;;;0.96;97.41
37778;BME280;23615;51.506;7.678;2022-12-11T04:46:11;99542.91;;;1.03;97.68
37778;BME280;23615;51.506;7.678;2022-12-11T04:48:37;99538.38;;;1.20;96.86
37778;BME280;23615;51.506;7.678;2022-12-11T04:51:03;99530.72;;;1.10;96.71
37778;BME280;23615;51.506;7.678;2022-12-11T04:53:29;99530.25;;;1.29;96.68
37778;BME280;23615;51.506;7.678;2022-12-11T04:55:55;99524.47;;;1.11;96.48
37778;BME280;23615;51.506;7.678;2022-12-11T04:58:21;99521.41;;;1.07;96.74
37778;BME280;23615;51.506;7.678;2022-12-11T05:00:46;99519.44;;;1.01;97.39
37778;BME280;23615;51.506;7.678;2022-12-11T05:03:11;99526.88;;;1.21;96.54
37778;BME280;23615;51.506;7.678;2022-12-11T05:05:37;99526.34;;;1.25;95.91
37778;BME280;23615;51.506;7.678;2022-12-11T05:08:02;99530.84;;;1.17;96.31
37778;BME280;23615;51.506;7.678;2022-12-11T05:10:27;99529.72;;;0.88;97.16
37778;BME280;23615;51.506;7.678;2022-12-11T05:12:53;99533.06;;;0.74;98.74
37778;BME280;23615;51.506;7.678;2022-12-11T05:15:18;99524.69;;;1.01;98.49
37778;BME280;23615;51.506;7.678;2022-12-11T05:17:43;99528.78;;;1.04;98.10
37778;BME280;23615;51.506;7.678;2022-12-11T05:20:09;99529.72;;;0.88;98.35
37778;BME280;23615;51.506;7.678;2022-12-11T05:22:35;99529.94;;;0.79;99.12
37778;BME280;23615;51.506;7.678;2022-12-11T05:25:00;99530.13;;;0.77;100.00
37778;BME280;23615;51.506;7.678;2022-12-11T05:27:26;99527.66;;;0.75;100.00
37778;BME280;23615;51.506;7.678;2022-12-11T05:29:51;99528.25;;;0.86;100.00
37778;BME280;23615;51.506;7.678;2022-12-11T05:32:16;99526.13;;;0.89;100.00
37778;BME280;23615;51.506;7.678;2022-12-11T05:34:41;99529.25;;;0.85;100.00
37778;BME280;23615;51.506;7.678;2022-12-11T05:37:07;99527.81;;;1.05;99.67
37778;BME280;23615;51.506;7.678;2022-12-11T05:39:32;99530.09;;;1.08;99.43
37778;BME280;23615;51.506;7.678;2022-12-11T05:41:57;99524.53;;;1.03;99.36
37778;BME280;23615;51.506;7.678;2022-12-11T05:44:23;99514.25;;;0.93;98.60
37778;BME280;23615;51.506;7.678;2022-12-11T05:46:48;99519.28;;;1.03;99.18
37778;BME280;23615;51.506;7.678;2022-12-11T05:49:14;99521.97;;;1.18;98.15
37778;BME280;23615;51.506;7.678;2022-12-11T05:51:39;99517.06;;;1.15;97.74
37778;BME280;23615;51.506;7.678;2022-12-11T05:54:05;99520.22;;;1.10;97.33
37778;BME280;23615;51.506;7.678;2022-12-11T05:56:32;99519.38;;;1.09;97.32
37778;BME280;23615;51.506;7.678;2022-12-11T05:58:59;99507.38;;;0.92;98.12
37778;BME280;23615;51.506;7.678;2022-12-11T06:01:31;99510.13;;;0.99;98.61
37778;BME280;23615;51.506;7.678;2022-12-11T06:03:56;99509.66;;;0.95;98.03
37778;BME280;23615;51.506;7.678;2022-12-11T06:06:22;99519.38;;;1.09;97.94
37778;BME280;23615;51.506;7.678;2022-12-11T06:08:56;99521.50;;;1.14;97.50
37778;BME280;23615;51.506;7.678;2022-12-11T06:11:22;99517.69;;;0.94;98.06
37778;BME280;23615;51.506;7.678;2022-12-11T06:13:48;99514.19;;;1.01;98.87
37778;BME280;23615;51.506;7.678;2022-12-11T06:16:13;99505.63;;;0.85;98.77
37778;BME280;23615;51.506;7.678;2022-12-11T06:18:41;99508.13;;;0.78;99.13
37778;BME280;23615;51.506;7.678;2022-12-11T06:23:36;99499.69;;;0.91;99.95
37778;BME280;23615;51.506;7.678;2022-12-11T06:26:02;99498.75;;;1.06;98.02
37778;BME280;23615;51.506;7.678;2022-12-11T06:28:28;99500.72;;;1.04;97.55
37778;BME280;23615;51.506;7.678;2022-12-11T06:30:53;99492.44;;;1.16;97.58
37778;BME280;23615;51.506;7.678;2022-12-11T06:33:18;99502.22;;;1.22;96.73
37778;BME280;23615;51.506;7.678;2022-12-11T06:35:43;99495.34;;;1.21;96.60
37778;BME280;23615;51.506;7.678;2022-12-11T06:38:09;99495.53;;;0.96;96.85
37778;BME280;23615;51.506;7.678;2022-12-11T06:40:34;99495.41;;;0.90;97.75
37778;BME280;23615;51.506;7.678;2022-12-11T06:42:59;99494.44;;;0.91;98.35
37778;BME280;23615;51.506;7.678;2022-12-11T06:45:25;99494.44;;;1.28;96.87
37778;BME280;23615;51.506;7.678;2022-12-11T06:47:50;99496.53;;;1.18;96.00
37778;BME280;23615;51.506;7.678;2022-12-11T06:50:15;99494.16;;;1.08;96.72
37778;BME280;23615;51.506;7.678;2022-12-11T06:52:41;99502.22;;;1.22;96.54
37778;BME280;23615;51.506;7.678;2022-12-11T06:55:06;99494.69;;;1.19;96.10
37778;BME280;23615;51.506;7.678;2022-12-11T06:57:32;99496.69;;;0.94;96.94
37778;BME280;23615;51.506;7.678;2022-12-11T06:59:57;99499.66;;;1.13;96.21
37778;BME280;23615;51.506;7.678;2022-12-11T07:02:22;99504.53;;;1.25;95.60
37778;BME280;23615;51.506;7.678;2022-12-11T07:04:47;99499.72;;;1.28;95.30
37778;BME280;23615;51.506;7.678;2022-12-11T07:07:13;99501.47;;;1.13;95.71
37778;BME280;23615;51.506;7.678;2022-12-11T07:09:39;99504.13;;;0.90;96.22
37778;BME280;23615;51.506;7.678;2022-12-11T07:12:04;99500.47;;;0.91;97.34
37778;BME280;23615;51.506;7.678;2022-12-11T07:14:30;99497.34;;;0.96;97.02
37778;BME280;23615;51.506;7.678;2022-12-11T07:16:56;99504.56;;;0.94;97.37
37778;BME280;23615;51.506;7.678;2022-12-11T07:19:21;99510.59;;;1.02;98.03
37778;BME280;23615;51.506;7.678;2022-12-11T07:21:47;99512.22;;;1.03;97.48
37778;BME280;23615;51.506;7.678;2022-12-11T07:24:12;99510.88;;;1.07;97.12
37778;BME280;23615;51.506;7.678;2022-12-11T07:26:37;99512.03;;;1.28;97.00
37778;BME280;23615;51.506;7.678;2022-12-11T07:29:03;99516.41;;;1.12;96.78
37778;BME280;23615;51.506;7.678;2022-12-11T07:31:29;99509.84;;;1.17;96.79
37778;BME280;23615;51.506;7.678;2022-12-11T07:33:58;99509.25;;;1.06;96.73
37778;BME280;23615;51.506;7.678;2022-12-11T07:36:24;99504.88;;;0.99;97.02
37778;BME280;23615;51.506;7.678;2022-12-11T07:38:50;99510.94;;;1.22;96.20
37778;BME280;23615;51.506;7.678;2022-12-11T07:41:16;99505.56;;;1.16;95.81
37778;BME280;23615;51.506;7.678;2022-12-11T07:43:42;99513.16;;;1.10;96.82
37778;BME280;23615;51.506;7.678;2022-12-11T07:46:10;99510.63;;;0.94;97.10
37778;BME280;23615;51.506;7.678;2022-12-11T07:48:38;99512.16;;;1.11;97.09
37778;BME280;23615;51.506;7.678;2022-12-11T07:51:19;99512.75;;;1.22;95.91
37778;BME280;23615;51.506;7.678;2022-12-11T07:53:48;99514.94;;;1.10;96.35
37778;BME280;23615;51.506;7.678;2022-12-11T07:56:14;99517.53;;;0.95;96.95
37778;BME280;23615;51.506;7.678;2022-12-11T07:58:40;99507.13;;;1.02;96.89
37778;BME280;23615;51.506;7.678;2022-12-11T08:01:14;99510.13;;;0.99;97.14
37778;BME280;23615;51.506;7.678;2022-12-11T08:03:40;99520.78;;;1.20;97.06
37778;BME280;23615;51.506;7.678;2022-12-11T08:06:14;99519.75;;;1.06;95.71
37778;BME280;23615;51.506;7.678;2022-12-11T08:08:40;99522.06;;;1.01;96.49
37778;BME280;23615;51.506;7.678;2022-12-11T08:11:10;99518.19;;;0.97;96.85
37778;BME280;23615;51.506;7.678;2022-12-11T08:13:35;99525.75;;;0.92;97.28
37778;BME280;23615;51.506;7.678;2022-12-11T08:16:06;99510.53;;;0.88;97.55
37778;BME280;23615;51.506;7.678;2022-12-11T08:18:32;99514.78;;;0.89;97.91
37778;BME280;23615;51.506;7.678;2022-12-11T08:20:57;99519.34;;;0.95;98.25
37778;BME280;23615;51.506;7.678;2022-12-11T08:23:23;99515.59;;;1.12;98.16
37778;BME280;23615;51.506;7.678;2022-12-11T08:25:48;99516.09;;;1.16;96.77
37778;BME280;23615;51.506;7.678;2022-12-11T08:28:13;99519.63;;;1.23;96.55
37778;BME280;23615;51.506;7.678;2022-12-11T08:30:38;99529.56;;;1.12;96.29
37778;BME280;23615;51.506;7.678;2022-12-11T08:33:04;99528.84;;;1.19;96.26
37778;BME280;23615;51.506;7.678;2022-12-11T08:35:30;99528.97;;;1.25;95.48
37778;BME280;23615;51.506;7.678;2022-12-11T08:37:56;99519.44;;;1.47;92.58
37778;BME280;23615;51.506;7.678;2022-12-11T08:40:21;99521.44;;;1.45;91.78
37778;BME280;23615;51.506;7.678;2022-12-11T08:42:46;99524.78;;;1.16;92.58
37778;BME280;23615;51.506;7.678;2022-12-11T08:45:11;99513.03;;;1.04;93.66
37778;BME280;23615;51.506;7.678;2022-12-11T08:47:37;99509.94;;;1.00;94.61
37778;BME280;23615;51.506;7.678;2022-12-11T08:50:03;99518.00;;;1.22;94.51
37778;BME280;23615;51.506;7.678;2022-12-11T08:52:28;99512.41;;;1.25;94.43
37778;BME280;23615;51.506;7.678;2022-12-11T08:54:55;99514.22;;;1.24;93.64
37778;BME280;23615;51.506;7.678;2022-12-11T08:57:20;99518.47;;;1.25;93.78
37778;BME280;23615;51.506;7.678;2022-12-11T08:59:46;99519.88;;;1.36;92.93
37778;BME280;23615;51.506;7.678;2022-12-11T09:02:11;99517.59;;;1.33;92.71
37778;BME280;23615;51.506;7.678;2022-12-11T09:04:37;99519.41;;;1.32;92.94
37778;BME280;23615;51.506;7.678;2022-12-11T09:07:03;99510.75;;;1.24;93.58
37778;BME280;23615;51.506;7.678;2022-12-11T09:09:28;99522.13;;;1.39;94.10
37778;BME280;23615;51.506;7.678;2022-12-11T09:11:53;99507.28;;;1.46;92.78
37778;BME280;23615;51.506;7.678;2022-12-11T09:14:19;99516.19;;;1.45;92.35
37778;BME280;23615;51.506;7.678;2022-12-11T09:16:45;99515.13;;;1.31;91.97
37778;BME280;23615;51.506;7.678;2022-12-11T09:19:13;99518.47;;;1.25;91.93
37778;BME280;23615;51.506;7.678;2022-12-11T09:21:38;99519.53;;;1.16;92.62
37778;BME280;23615;51.506;7.678;2022-12-11T09:24:04;99513.44;;;1.16;92.71
37778;BME280;23615;51.506;7.678;2022-12-11T09:26:30;99516.59;;;1.34;92.94
37778;BME280;23615;51.506;7.678;2022-12-11T09:28:55;99517.25;;;1.36;93.25
37778;BME280;23615;51.506;7.678;2022-12-11T09:31:23;99518.97;;;1.43;92.78
37778;BME280;23615;51.506;7.678;2022-12-11T09:33:50;99510.94;;;1.45;92.74
37778;BME280;23615;51.506;7.678;2022-12-11T09:36:16;99515.72;;;1.56;92.25
37778;BME280;23615;51.506;7.678;2022-12-11T09:38:41;99519.44;;;1.47;93.00
37778;BME280;23615;51.506;7.678;2022-12-11T09:46:17;99519.06;;;1.12;92.69
37778;BME280;23615;51.506;7.678;2022-12-11T09:48:45;99513.53;;;1.07;93.38
37778;BME280;23615;51.506;7.678;2022-12-11T09:51:26;99510.19;;;1.36;92.77
37778;BME280;23615;51.506;7.678;2022-12-11T09:53:55;99497.91;;;1.29;92.35
37778;BME280;23615;51.506;7.678;2022-12-11T09:56:31;99499.06;;;1.49;91.75
37778;BME280;23615;51.506;7.678;2022-12-11T10:01:51;99510.69;;;1.32;92.48
37778;BME280;23615;51.506;7.678;2022-12-11T10:04:54;99502.47;;;1.35;90.47
37778;BME280;23615;51.506;7.678;2022-12-11T10:07:47;99516.78;;;1.32;90.08
37778;BME280;23615;51.506;7.678;2022-12-11T10:10:39;99507.00;;;1.41;89.31
37778;BME280;23615;51.506;7.678;2022-12-11T10:15:44;99498.66;;;1.37;88.71
37778;BME280;23615;51.506;7.678;2022-12-11T10:18:17;99501.50;;;1.28;88.71
37778;BME280;23615;51.506;7.678;2022-12-11T10:20:43;99494.13;;;1.46;87.75
37778;BME280;23615;51.506;7.678;2022-12-11T10:23:17;99495.69;;;1.40;87.19
37778;BME280;23615;51.506;7.678;2022-12-11T10:25:54;99494.50;;;1.43;87.44
37778;BME280;23615;51.506;7.678;2022-12-11T10:28:21;99501.47;;;1.36;87.76
37778;BME280;23615;51.506;7.678;2022-12-11T10:33:21;99482.13;;;1.29;87.99
37778;BME280;23615;51.506;7.678;2022-12-11T10:35:55;99492.84;;;1.04;88.74
37778;BME280;23615;51.506;7.678;2022-12-11T10:38:28;99494.25;;;1.15;89.48
37778;BME280;23615;51.506;7.678;2022-12-11T10:43:40;99490.91;;;1.21;89.07
37778;BME280;23615;51.506;7.678;2022-12-11T10:46:14;99494.19;;;1.23;89.63
37778;BME280;23615;51.506;7.678;2022-12-11T10:48:59;99480.56;;;1.20;90.04
37778;BME280;23615;51.506;7.678;2022-12-11T10:54:02;99486.38;;;1.15;90.70
37778;BME280;23615;51.506;7.678;2022-12-11T10:56:31;99485.13;;;1.26;90.14
37778;BME280;23615;51.506;7.678;2022-12-11T10:58:59;99482.78;;;1.31;89.55
37778;BME280;23615;51.506;7.678;2022-12-11T11:01:26;99482.72;;;1.39;89.37
37778;BME280;23615;51.506;7.678;2022-12-11T11:03:57;99479.44;;;1.37;89.22
37778;BME280;23615;51.506;7.678;2022-12-11T11:06:24;99473.69;;;1.56;88.97
37778;BME280;23615;51.506;7.678;2022-12-11T11:08:52;99476.44;;;1.25;89.67
37778;BME280;23615;51.506;7.678;2022-12-11T11:11:25;99471.31;;;1.09;90.84
37778;BME280;23615;51.506;7.678;2022-12-11T11:13:51;99472.66;;;1.05;91.66
37778;BME280;23615;51.506;7.678;2022-12-11T11:16:19;99470.50;;;1.08;92.33
37778;BME280;23615;51.506;7.678;2022-12-11T11:18:56;99470.94;;;1.12;92.29
37778;BME280;23615;51.506;7.678;2022-12-11T11:21:23;99465.00;;;1.18;92.67
37778;BME280;23615;51.506;7.678;2022-12-11T11:23:51;99469.06;;;1.21;93.01
37778;BME280;23615;51.506;7.678;2022-12-11T11:26:17;99460.13;;;1.30;92.00
37778;BME280;23615;51.506;7.678;2022-12-11T11:28:49;99459.94;;;1.31;92.05
37778;BME280;23615;51.506;7.678;2022-12-11T11:31:16;99456.97;;;1.34;92.20
37778;BME280;23615;51.506;7.678;2022-12-11T11:36:19;99462.16;;;1.42;91.05
37778;BME280;23615;51.506;7.678;2022-12-11T11:38:53;99457.97;;;1.33;91.95
37778;BME280;23615;51.506;7.678;2022-12-11T11:44:34;99452.25;;;1.30;92.07
37778;BME280;23615;51.506;7.678;2022-12-11T11:47:11;99460.28;;;1.28;92.44
37778;BME280;23615;51.506;7.678;2022-12-11T11:50:17;99455.84;;;1.29;92.62
37778;BME280;23615;51.506;7.678;2022-12-11T11:53:09;99459.44;;;1.36;92.14
37778;BME280;23615;51.506;7.678;2022-12-11T11:55:41;99458.31;;;1.30;92.72
37778;BME280;23615;51.506;7.678;2022-12-11T11:58:17;99451.91;;;1.33;92.32
37778;BME280;23615;51.506;7.678;2022-12-11T12:00:47;99453.97;;;1.37;92.56
37778;BME280;23615;51.506;7.678;2022-12-11T12:03:15;99453.16;;;1.37;92.70
37778;BME280;23615;51.506;7.678;2022-12-11T12:05:58;99441.03;;;1.36;92.89
37778;BME280;23615;51.506;7.678;2022-12-11T12:08:30;99452.16;;;1.38;93.13
37778;BME280;23615;51.506;7.678;2022-12-11T12:11:02;99450.72;;;1.35;93.14
37778;BME280;23615;51.506;7.678;2022-12-11T12:14:00;99451.34;;;1.37;93.12
37778;BME280;23615;51.506;7.678;2022-12-11T12:16:34;99449.91;;;1.35;93.07
37778;BME280;23615;51.506;7.678;2022-12-11T12:19:17;99445.84;;;1.47;93.04
37778;BME280;23615;51.506;7.678;2022-12-11T12:21:50;99443.41;;;1.60;91.76
37778;BME280;23615;51.506;7.678;2022-12-11T12:24:32;99442.50;;;1.53;91.11
37778;BME280;23615;51.506;7.678;2022-12-11T12:34:56;99421.75;;;1.43;92.56
37778;BME280;23615;51.506;7.678;2022-12-11T12:39:58;99419.56;;;1.47;92.88
37778;BME280;23615;51.506;7.678;2022-12-11T12:47:37;99425.44;;;1.49;92.50
37778;BME280;23615;51.506;7.678;2022-12-11T12:50:09;99428.38;;;1.54;92.00
37778;BME280;23615;51.506;7.678;2022-12-11T12:52:37;99424.28;;;1.52;92.00
37778;BME280;23615;51.506;7.678;2022-12-11T12:55:30;99422.47;;;1.52;92.02
37778;BME280;23615;51.506;7.678;2022-12-11T12:58:01;99417.91;;;1.46;92.20
37778;BME280;23615;51.506;7.678;2022-12-11T13:02:58;99422.91;;;1.41;92.47
37778;BME280;23615;51.506;7.678;2022-12-11T13:05:27;99418.22;;;1.51;91.91
37778;BME280;23615;51.506;7.678;2022-12-11T13:07:56;99422.81;;;1.49;91.63
37778;BME280;23615;51.506;7.678;2022-12-11T13:10:27;99419.13;;;1.43;91.86
37778;BME280;23615;51.506;7.678;2022-12-11T13:12:53;99427.34;;;1.40;92.20
37778;BME280;23615;51.506;7.678;2022-12-11T13:17:50;99411.41;;;1.42;92.36
37778;BME280;23615;51.506;7.678;2022-12-11T13:20:19;99417.66;;;1.41;92.69
37778;BME280;23615;51.506;7.678;2022-12-11T13:23:08;99412.03;;;1.44;92.64
37778;BME280;23615;51.506;7.678;2022-12-11T13:25:49;99409.69;;;1.49;92.31
37778;BME280;23615;51.506;7.678;2022-12-11T13:28:53;99411.78;;;1.54;92.43
37778;BME280;23615;51.506;7.678;2022-12-11T13:33:49;99417.94;;;1.61;92.39
37778;BME280;23615;51.506;7.678;2022-12-11T13:36:23;99419.94;;;1.59;91.79
37778;BME280;23615;51.506;7.678;2022-12-11T13:38:53;99417.22;;;1.52;91.70
37778;BME280;23615;51.506;7.678;2022-12-11T13:41:19;99410.31;;;1.51;92.14
37778;BME280;23615;51.506;7.678;2022-12-11T13:43:47;99418.75;;;1.46;92.64
37778;BME280;23615;51.506;7.678;2022-12-11T13:46:18;99416.22;;;1.53;92.41
37778;BME280;23615;51.506;7.678;2022-12-11T13:48:49;99420.84;;;1.51;92.16
37778;BME280;23615;51.506;7.678;2022-12-11T13:51:23;99426.09;;;1.51;92.35
37778;BME280;23615;51.506;7.678;2022-12-11T13:53:48;99413.41;;;1.55;92.28
37778;BME280;23615;51.506;7.678;2022-12-11T13:56:25;99413.22;;;1.56;92.42
37778;BME280;23615;51.506;7.678;2022-12-11T13:58:51;99416.84;;;1.55;92.39
37778;BME280;23615;51.506;7.678;2022-12-11T14:01:21;99411.41;;;1.57;92.43
37778;BME280;23615;51.506;7.678;2022-12-11T14:03:54;99420.28;;;1.56;92.28
37778;BME280;23615;51.506;7.678;2022-12-11T14:06:20;99417.47;;;1.57;92.25
37778;BME280;23615;51.506;7.678;2022-12-11T14:08:49;99421.56;;;1.60;92.27
37778;BME280;23615;51.506;7.678;2022-12-11T14:11:20;99424.38;;;1.58;92.17
37778;BME280;23615;51.506;7.678;2022-12-11T14:13:46;99423.94;;;1.55;92.34
37778;BME280;23615;51.506;7.678;2022-12-11T14:16:18;99418.84;;;1.53;92.21
37778;BME280;23615;51.506;7.678;2022-12-11T14:18:44;99417.88;;;1.54;92.22
37778;BME280;23615;51.506;7.678;2022-12-11T14:21:18;99422.31;;;1.54;92.41